DLH255 EDDN-EDDF
Flight info
| Callsign | DLH255 |
|---|---|
| Flight time | 0h 24m |
| Altitude | 24000 |
| Route | SUKAD1G SUKAD DCT PIWAW T159 SPESA SPESA4B |
| Aircraft | A20N/M-SDE2E3FGHIRWXY/LB1 |
Departure
| Time | 2026-04-16 10:08 |
|---|---|
| Airport | Nuremberg Airport (EDDN) |
Arrival
| Time | 2026-04-16 10:33 |
|---|---|
| Airport | Frankfurt Main Airport (EDDF) |
| Time | Latitude | Longitude | Altitude | Speed | Heading |
|---|---|---|---|---|---|
| 2026-04-16 09:42 | 49.49525 | 11.07660 | 1032 ft | 0 kts | 188° |
| 2026-04-16 09:59 | 49.49527 | 11.07660 | 1032 ft | 2 kts | 188° |
| 2026-04-16 10:00 | 49.49541 | 11.07663 | 1033 ft | 2 kts | 188° |
| 2026-04-16 10:00 | 49.49556 | 11.07667 | 1034 ft | 2 kts | 188° |
| 2026-04-16 10:00 | 49.49570 | 11.07670 | 1035 ft | 2 kts | 188° |
| 2026-04-16 10:01 | 49.49597 | 11.07657 | 1037 ft | 2 kts | 107° |
| 2026-04-16 10:01 | 49.49598 | 11.07641 | 1037 ft | 0 kts | 100° |
| 2026-04-16 10:04 | 49.49597 | 11.07650 | 1037 ft | 3 kts | 99° |
| 2026-04-16 10:04 | 49.49589 | 11.07739 | 1037 ft | 14 kts | 97° |
| 2026-04-16 10:04 | 49.49573 | 11.07921 | 1038 ft | 21 kts | 96° |
| 2026-04-16 10:04 | 49.49550 | 11.08145 | 1038 ft | 13 kts | 100° |
| 2026-04-16 10:05 | 49.49537 | 11.08303 | 1040 ft | 13 kts | 85° |
| 2026-04-16 10:05 | 49.49601 | 11.08375 | 1042 ft | 12 kts | 33° |
| 2026-04-16 10:05 | 49.49608 | 11.08519 | 1044 ft | 17 kts | 99° |
| 2026-04-16 10:05 | 49.49589 | 11.08716 | 1046 ft | 16 kts | 98° |
| 2026-04-16 10:06 | 49.49570 | 11.08895 | 1048 ft | 18 kts | 99° |
| 2026-04-16 10:06 | 49.49551 | 11.09098 | 1049 ft | 20 kts | 98° |
| 2026-04-16 10:06 | 49.49534 | 11.09276 | 1052 ft | 16 kts | 98° |
| 2026-04-16 10:06 | 49.49566 | 11.09431 | 1055 ft | 16 kts | 53° |
| 2026-04-16 10:07 | 49.49641 | 11.09563 | 1058 ft | 16 kts | 26° |
| 2026-04-16 10:07 | 49.49705 | 11.09477 | 1059 ft | 12 kts | 278° |
| 2026-04-16 10:07 | 49.49706 | 11.09470 | 1058 ft | 0 kts | 279° |
| 2026-04-16 10:08 | 49.49748 | 11.09036 | 1053 ft | 78 kts | 278° |
| 2026-04-16 10:08 | 49.49861 | 11.07895 | 1048 ft | 134 kts | 278° |
| 2026-04-16 10:08 | 49.50000 | 11.06308 | 1287 ft | 157 kts | 279° |
| 2026-04-16 10:08 | 49.50183 | 11.04628 | 1901 ft | 160 kts | 281° |
| 2026-04-16 10:09 | 49.50356 | 11.02925 | 2545 ft | 163 kts | 277° |
| 2026-04-16 10:09 | 49.50496 | 11.01180 | 3158 ft | 166 kts | 277° |
| 2026-04-16 10:09 | 49.50661 | 10.99343 | 3573 ft | 184 kts | 278° |
| 2026-04-16 10:09 | 49.50877 | 10.97243 | 3981 ft | 209 kts | 279° |
| 2026-04-16 10:10 | 49.51118 | 10.94916 | 4598 ft | 231 kts | 279° |
| 2026-04-16 10:10 | 49.51377 | 10.92352 | 5309 ft | 252 kts | 278° |
| 2026-04-16 10:10 | 49.51647 | 10.89613 | 6179 ft | 263 kts | 278° |
| 2026-04-16 10:10 | 49.51920 | 10.86803 | 6717 ft | 267 kts | 278° |
| 2026-04-16 10:11 | 49.52189 | 10.83993 | 6915 ft | 269 kts | 278° |
| 2026-04-16 10:11 | 49.52461 | 10.81145 | 6988 ft | 268 kts | 278° |
| 2026-04-16 10:11 | 49.52733 | 10.78301 | 6993 ft | 268 kts | 278° |
| 2026-04-16 10:11 | 49.53003 | 10.75466 | 6991 ft | 268 kts | 278° |
| 2026-04-16 10:12 | 49.53273 | 10.72631 | 6989 ft | 267 kts | 278° |
| 2026-04-16 10:12 | 49.53543 | 10.69792 | 6991 ft | 268 kts | 278° |
| 2026-04-16 10:12 | 49.53813 | 10.66954 | 6993 ft | 268 kts | 278° |
| 2026-04-16 10:12 | 49.54079 | 10.64130 | 7126 ft | 271 kts | 278° |
| 2026-04-16 10:13 | 49.54353 | 10.61226 | 7639 ft | 275 kts | 278° |
| 2026-04-16 10:13 | 49.54626 | 10.58313 | 7735 ft | 273 kts | 278° |
| 2026-04-16 10:13 | 49.54906 | 10.55445 | 7731 ft | 270 kts | 281° |
| 2026-04-16 10:13 | 49.55490 | 10.52698 | 7730 ft | 272 kts | 295° |
| 2026-04-16 10:14 | 49.56500 | 10.50202 | 7767 ft | 274 kts | 306° |
| 2026-04-16 10:14 | 49.57633 | 10.47818 | 8124 ft | 277 kts | 305° |
| 2026-04-16 10:14 | 49.58744 | 10.45437 | 9172 ft | 275 kts | 305° |
| 2026-04-16 10:14 | 49.59865 | 10.43021 | 10297 ft | 278 kts | 305° |
| 2026-04-16 10:15 | 49.61021 | 10.40525 | 10936 ft | 296 kts | 305° |
| 2026-04-16 10:15 | 49.62273 | 10.37821 | 11354 ft | 320 kts | 305° |
| 2026-04-16 10:15 | 49.63601 | 10.34952 | 12001 ft | 333 kts | 305° |
| 2026-04-16 10:15 | 49.64956 | 10.32023 | 12753 ft | 337 kts | 305° |
| 2026-04-16 10:16 | 49.66323 | 10.29065 | 13090 ft | 340 kts | 304° |
| 2026-04-16 10:16 | 49.67234 | 10.27091 | 13196 ft | 341 kts | 304° |
| 2026-04-16 10:16 | 49.68613 | 10.24098 | 13745 ft | 345 kts | 304° |
| 2026-04-16 10:16 | 49.70459 | 10.20090 | 15003 ft | 346 kts | 304° |
| 2026-04-16 10:17 | 49.71337 | 10.17968 | 15536 ft | 348 kts | 295° |
| 2026-04-16 10:17 | 49.72372 | 10.13259 | 16576 ft | 353 kts | 284° |
| 2026-04-16 10:17 | 49.72981 | 10.09543 | 17333 ft | 358 kts | 283° |
| 2026-04-16 10:17 | 49.73388 | 10.07012 | 17683 ft | 360 kts | 284° |
| 2026-04-16 10:18 | 49.74222 | 10.02049 | 17852 ft | 362 kts | 285° |
| 2026-04-16 10:18 | 49.74651 | 9.99594 | 17722 ft | 350 kts | 285° |
| 2026-04-16 10:18 | 49.75288 | 9.96033 | 17449 ft | 348 kts | 285° |
| 2026-04-16 10:18 | 49.75971 | 9.92256 | 17215 ft | 381 kts | 285° |
| 2026-04-16 10:19 | 49.76714 | 9.88158 | 17055 ft | 408 kts | 285° |
| 2026-04-16 10:19 | 49.77502 | 9.83810 | 17025 ft | 430 kts | 285° |
| 2026-04-16 10:19 | 49.78320 | 9.79280 | 16973 ft | 439 kts | 285° |
| 2026-04-16 10:19 | 49.79147 | 9.74691 | 16946 ft | 444 kts | 285° |
| 2026-04-16 10:20 | 49.79946 | 9.70245 | 16681 ft | 414 kts | 285° |
| 2026-04-16 10:20 | 49.80738 | 9.66115 | 16371 ft | 387 kts | 290° |
| 2026-04-16 10:20 | 49.81876 | 9.62450 | 15686 ft | 373 kts | 302° |
| 2026-04-16 10:20 | 49.83311 | 9.59139 | 14776 ft | 369 kts | 303° |
| 2026-04-16 10:21 | 49.84757 | 9.55874 | 13852 ft | 365 kts | 304° |
| 2026-04-16 10:21 | 49.86187 | 9.52669 | 12877 ft | 360 kts | 304° |
| 2026-04-16 10:21 | 49.87593 | 9.49531 | 11956 ft | 356 kts | 304° |
| 2026-04-16 10:21 | 49.88997 | 9.46399 | 11065 ft | 351 kts | 304° |
| 2026-04-16 10:22 | 49.90389 | 9.43288 | 9779 ft | 355 kts | 304° |
| 2026-04-16 10:22 | 49.91823 | 9.40080 | 8212 ft | 366 kts | 304° |
| 2026-04-16 10:22 | 49.93273 | 9.36838 | 7069 ft | 365 kts | 304° |
| 2026-04-16 10:22 | 49.94710 | 9.33619 | 6110 ft | 358 kts | 304° |
| 2026-04-16 10:23 | 49.96072 | 9.30559 | 5717 ft | 336 kts | 304° |
| 2026-04-16 10:23 | 49.97357 | 9.27669 | 5474 ft | 313 kts | 304° |
| 2026-04-16 10:23 | 49.98559 | 9.24973 | 5274 ft | 294 kts | 304° |
| 2026-04-16 10:23 | 49.99677 | 9.22455 | 5121 ft | 267 kts | 304° |
| 2026-04-16 10:24 | 50.00628 | 9.20317 | 4789 ft | 224 kts | 304° |
| 2026-04-16 10:24 | 50.01530 | 9.18290 | 4235 ft | 232 kts | 304° |
| 2026-04-16 10:24 | 50.02430 | 9.16251 | 4034 ft | 227 kts | 304° |
| 2026-04-16 10:24 | 50.03314 | 9.14246 | 3982 ft | 217 kts | 304° |
| 2026-04-16 10:25 | 50.04133 | 9.12390 | 3981 ft | 204 kts | 304° |
| 2026-04-16 10:25 | 50.04910 | 9.10630 | 3980 ft | 190 kts | 304° |
| 2026-04-16 10:25 | 50.05637 | 9.08980 | 3839 ft | 186 kts | 304° |
| 2026-04-16 10:25 | 50.06467 | 9.07082 | 4111 ft | 236 kts | 303° |
| 2026-04-16 10:26 | 50.07242 | 9.05313 | 4066 ft | 280 kts | 304° |
| 2026-04-16 10:26 | 50.08435 | 9.02611 | 3993 ft | 325 kts | 304° |
| 2026-04-16 10:26 | 50.09753 | 8.99626 | 3983 ft | 329 kts | 304° |
| 2026-04-16 10:26 | 50.10973 | 8.96855 | 3988 ft | 298 kts | 302° |
| 2026-04-16 10:27 | 50.11730 | 8.94029 | 3992 ft | 269 kts | 279° |
| 2026-04-16 10:27 | 50.11688 | 8.91307 | 3988 ft | 244 kts | 256° |
| 2026-04-16 10:27 | 50.11155 | 8.88928 | 3985 ft | 220 kts | 249° |
| 2026-04-16 10:27 | 50.10604 | 8.86591 | 3990 ft | 236 kts | 250° |
| 2026-04-16 10:28 | 50.10076 | 8.84278 | 3923 ft | 218 kts | 251° |
| 2026-04-16 10:28 | 50.09598 | 8.82121 | 3790 ft | 203 kts | 250° |
| 2026-04-16 10:28 | 50.09138 | 8.80137 | 3747 ft | 184 kts | 249° |
| 2026-04-16 10:28 | 50.08722 | 8.78388 | 3628 ft | 159 kts | 249° |
| 2026-04-16 10:29 | 50.08367 | 8.76897 | 3505 ft | 139 kts | 249° |
| 2026-04-16 10:29 | 50.08040 | 8.75530 | 3247 ft | 133 kts | 249° |
| 2026-04-16 10:29 | 50.07718 | 8.74181 | 2933 ft | 132 kts | 249° |
| 2026-04-16 10:29 | 50.07399 | 8.72846 | 2620 ft | 131 kts | 250° |
| 2026-04-16 10:30 | 50.07083 | 8.71520 | 2308 ft | 130 kts | 249° |
| 2026-04-16 10:30 | 50.06810 | 8.70179 | 1990 ft | 130 kts | 257° |
| 2026-04-16 10:30 | 50.06666 | 8.68791 | 1636 ft | 132 kts | 261° |
| 2026-04-16 10:30 | 50.06497 | 8.67399 | 1320 ft | 131 kts | 256° |
| 2026-04-16 10:31 | 50.06252 | 8.66095 | 1102 ft | 124 kts | 249° |
| 2026-04-16 10:31 | 50.05965 | 8.64839 | 969 ft | 128 kts | 249° |
| 2026-04-16 10:31 | 50.05662 | 8.63572 | 913 ft | 126 kts | 249° |
| 2026-04-16 10:31 | 50.05357 | 8.62287 | 829 ft | 127 kts | 249° |
| 2026-04-16 10:32 | 50.05056 | 8.61007 | 709 ft | 125 kts | 249° |
| 2026-04-16 10:32 | 50.04765 | 8.59756 | 555 ft | 123 kts | 248° |
| 2026-04-16 10:32 | 50.04464 | 8.58492 | 405 ft | 126 kts | 248° |
| 2026-04-16 10:32 | 50.04174 | 8.57278 | 367 ft | 100 kts | 249° |
| 2026-04-16 10:33 | 50.04008 | 8.56575 | 365 ft | 32 kts | 251° |
| 2026-04-16 10:33 | 50.04002 | 8.56282 | 359 ft | 20 kts | 280° |
| 2026-04-16 10:33 | 50.04011 | 8.56202 | 366 ft | 0 kts | 280° |
| 2026-04-16 10:34 | 50.04013 | 8.56188 | 364 ft | 5 kts | 280° |
| 2026-04-16 10:34 | 50.04027 | 8.56085 | 362 ft | 14 kts | 286° |
| 2026-04-16 10:34 | 50.04089 | 8.55973 | 362 ft | 13 kts | 329° |
| 2026-04-16 10:34 | 50.04130 | 8.55951 | 364 ft | 0 kts | 339° |
| 2026-04-16 10:35 | 50.04144 | 8.55943 | 366 ft | 8 kts | 339° |
| 2026-04-16 10:35 | 50.04233 | 8.55943 | 366 ft | 11 kts | 53° |
| 2026-04-16 10:35 | 50.04285 | 8.56063 | 363 ft | 15 kts | 32° |
| 2026-04-16 10:35 | 50.04390 | 8.56032 | 368 ft | 15 kts | 350° |
| 2026-04-16 10:36 | 50.04457 | 8.56140 | 367 ft | 17 kts | 68° |
| 2026-04-16 10:36 | 50.04500 | 8.56324 | 369 ft | 19 kts | 70° |
| 2026-04-16 10:36 | 50.04563 | 8.56453 | 366 ft | 15 kts | 21° |
| 2026-04-16 10:36 | 50.04605 | 8.56506 | 370 ft | 6 kts | 88° |
| 2026-04-16 10:37 | 50.04593 | 8.56580 | 364 ft | 6 kts | 117° |
| 2026-04-16 10:37 | 50.04579 | 8.56622 | 364 ft | 1 kts | 117° |
| 2026-04-16 10:37 | 50.04579 | 8.56624 | 364 ft | 0 kts | 114° |